createdAt,value
2018-12-26T00:00:05.277Z,3.62
2018-12-26T00:01:05.466Z,3.62
2018-12-26T00:02:05.040Z,3.62
2018-12-26T00:03:05.702Z,3.62
2018-12-26T00:04:05.131Z,3.62
2018-12-26T00:05:05.271Z,3.62
2018-12-26T00:06:05.434Z,3.62
2018-12-26T00:07:06.128Z,3.62
2018-12-26T00:08:05.061Z,3.62
2018-12-26T00:09:05.139Z,3.62
2018-12-26T00:10:05.842Z,3.62
2018-12-26T00:11:05.401Z,3.62
2018-12-26T00:12:05.273Z,3.62
2018-12-26T00:13:05.867Z,3.62
2018-12-26T00:14:05.364Z,3.62
2018-12-26T00:15:05.712Z,3.62
2018-12-26T00:16:05.299Z,3.62
2018-12-26T00:17:05.378Z,3.62
2018-12-26T00:18:05.164Z,3.62
2018-12-26T00:19:05.198Z,3.62
2018-12-26T00:20:05.527Z,3.62
2018-12-26T00:21:06.120Z,3.62
2018-12-26T00:22:05.059Z,3.62
2018-12-26T00:23:05.201Z,3.62
2018-12-26T00:24:05.675Z,3.62
2018-12-26T00:25:06.017Z,3.62
2018-12-26T00:26:05.740Z,3.62
2018-12-26T00:27:05.862Z,3.62
2018-12-26T00:28:06.010Z,3.62
2018-12-26T00:29:05.545Z,3.62
2018-12-26T00:30:05.519Z,3.62
2018-12-26T00:31:05.622Z,3.62
2018-12-26T00:32:05.288Z,3.62
2018-12-26T00:33:05.380Z,3.62
2018-12-26T00:34:06.024Z,3.62
2018-12-26T00:35:05.074Z,3.62
2018-12-26T00:36:05.613Z,3.62
2018-12-26T00:37:05.643Z,3.62
2018-12-26T00:38:05.072Z,3.56
2018-12-26T00:39:05.203Z,3.56
2018-12-26T00:40:05.510Z,3.56
2018-12-26T00:41:05.207Z,3.56
2018-12-26T00:42:05.458Z,3.56
2018-12-26T00:43:05.533Z,3.56
2018-12-26T00:44:05.928Z,3.56
2018-12-26T00:45:05.468Z,3.56
2018-12-26T00:46:05.221Z,3.56
2018-12-26T00:47:05.236Z,3.56
2018-12-26T00:48:05.395Z,3.56
2018-12-26T00:49:05.402Z,3.56
2018-12-26T00:50:05.481Z,3.56
2018-12-26T00:51:05.298Z,3.56
2018-12-26T00:52:05.954Z,3.56
2018-12-26T00:53:05.227Z,3.56
2018-12-26T00:54:05.788Z,3.56
2018-12-26T00:55:05.785Z,3.56
2018-12-26T00:56:10.356Z,3.56
2018-12-26T00:57:05.234Z,3.56
2018-12-26T00:58:05.158Z,3.56
2018-12-26T00:59:05.388Z,3.56
2018-12-26T01:00:06.086Z,3.56
2018-12-26T01:01:05.474Z,3.56
2018-12-26T01:02:05.548Z,3.56
2018-12-26T01:03:05.781Z,3.56
2018-12-26T01:04:05.118Z,3.56
2018-12-26T01:05:05.876Z,3.56
2018-12-26T01:06:05.192Z,3.56
2018-12-26T01:07:05.608Z,3.56
2018-12-26T01:08:05.762Z,3.56
2018-12-26T01:09:05.872Z,3.56
2018-12-26T01:10:05.359Z,3.56
2018-12-26T01:11:05.864Z,3.56
2018-12-26T01:12:05.384Z,3.56
2018-12-26T01:13:05.632Z,3.50
2018-12-26T01:14:05.943Z,3.50
2018-12-26T01:15:05.081Z,3.50
2018-12-26T01:16:05.454Z,3.50
2018-12-26T01:17:05.565Z,3.50
2018-12-26T01:18:06.011Z,3.50
2018-12-26T01:19:05.371Z,3.50
2018-12-26T01:20:05.435Z,3.56
2018-12-26T01:21:05.952Z,3.56
2018-12-26T01:22:05.379Z,3.50
2018-12-26T01:23:05.481Z,3.50
2018-12-26T01:24:05.433Z,3.50
2018-12-26T01:25:05.721Z,3.50
2018-12-26T01:26:05.698Z,3.50
2018-12-26T01:27:05.692Z,3.50
2018-12-26T01:28:05.033Z,3.50
2018-12-26T01:29:05.648Z,3.50
2018-12-26T01:30:05.522Z,3.50
2018-12-26T01:31:05.612Z,3.50
2018-12-26T01:32:05.939Z,3.50
2018-12-26T01:33:06.031Z,3.50
2018-12-26T01:34:05.036Z,3.50
2018-12-26T01:35:05.066Z,3.50
2018-12-26T01:36:05.704Z,3.50
2018-12-26T01:37:05.956Z,3.50
2018-12-26T01:38:05.779Z,3.50
2018-12-26T01:39:05.867Z,3.50
2018-12-26T01:40:05.228Z,3.50
2018-12-26T01:41:05.392Z,3.50
2018-12-26T01:42:05.793Z,3.50
2018-12-26T01:43:05.167Z,3.50
2018-12-26T01:44:05.166Z,3.50
2018-12-26T01:45:05.463Z,3.50
2018-12-26T01:46:06.011Z,3.50
2018-12-26T01:47:05.064Z,3.50
2018-12-26T01:48:05.548Z,3.50
2018-12-26T01:49:05.876Z,3.44
2018-12-26T01:50:05.139Z,3.50
2018-12-26T01:51:05.869Z,3.44
2018-12-26T01:52:06.007Z,3.50
2018-12-26T01:53:05.460Z,3.50
2018-12-26T01:54:05.607Z,3.44
2018-12-26T01:55:05.730Z,3.44
2018-12-26T01:56:05.624Z,3.50
2018-12-26T01:57:05.626Z,3.50
2018-12-26T01:58:05.710Z,3.44
2018-12-26T01:59:06.970Z,3.44
2018-12-26T02:00:05.626Z,3.44
2018-12-26T02:01:05.886Z,3.44
2018-12-26T02:02:06.063Z,3.44
2018-12-26T02:03:05.250Z,3.44
2018-12-26T02:04:05.208Z,3.44
2018-12-26T02:05:06.035Z,3.44
2018-12-26T02:06:06.010Z,3.44
2018-12-26T02:07:05.627Z,3.44
2018-12-26T02:08:05.132Z,3.44
2018-12-26T02:09:05.232Z,3.44
2018-12-26T02:10:05.790Z,3.44
2018-12-26T02:11:05.153Z,3.44
2018-12-26T02:12:05.527Z,3.44
2018-12-26T02:13:05.640Z,3.44
2018-12-26T02:14:05.052Z,3.44
2018-12-26T02:15:05.197Z,3.44
2018-12-26T02:16:05.362Z,3.44
2018-12-26T02:17:06.030Z,3.44
2018-12-26T02:18:05.305Z,3.44
2018-12-26T02:19:05.519Z,3.44
2018-12-26T02:20:06.011Z,3.44
2018-12-26T02:21:05.939Z,3.44
2018-12-26T02:22:05.175Z,3.44
2018-12-26T02:23:05.056Z,3.44
2018-12-26T02:24:05.468Z,3.44
2018-12-26T02:25:05.785Z,3.44
2018-12-26T02:26:05.850Z,3.44
2018-12-26T02:27:05.950Z,3.44
2018-12-26T02:28:05.126Z,3.44
2018-12-26T02:29:05.240Z,3.44
2018-12-26T02:30:05.614Z,3.44
2018-12-26T02:31:05.714Z,3.44
2018-12-26T02:32:05.949Z,3.44
2018-12-26T02:33:05.142Z,3.44
2018-12-26T02:34:05.276Z,3.44
2018-12-26T02:35:05.690Z,3.44
2018-12-26T02:36:05.062Z,3.44
2018-12-26T02:37:05.405Z,3.38
2018-12-26T02:38:05.378Z,3.44
2018-12-26T02:39:05.468Z,3.44
2018-12-26T02:40:06.026Z,3.44
2018-12-26T02:41:05.466Z,3.44
2018-12-26T02:42:05.219Z,3.44
2018-12-26T02:43:05.525Z,3.44
2018-12-26T02:44:05.777Z,3.44
2018-12-26T02:45:05.780Z,3.44
2018-12-26T02:46:05.068Z,3.44
2018-12-26T02:47:05.302Z,3.38
2018-12-26T02:48:05.368Z,3.38
2018-12-26T02:49:05.861Z,3.38
2018-12-26T02:50:05.136Z,3.38
2018-12-26T02:51:05.281Z,3.38
2018-12-26T02:52:05.515Z,3.38
2018-12-26T02:53:05.541Z,3.38
2018-12-26T02:54:05.148Z,3.38
2018-12-26T02:55:05.230Z,3.38
2018-12-26T02:56:05.767Z,3.38
2018-12-26T02:57:05.878Z,3.38
2018-12-26T02:58:05.233Z,3.38
2018-12-26T02:59:05.541Z,3.38
2018-12-26T03:00:06.027Z,3.38
2018-12-26T03:01:06.020Z,3.38
2018-12-26T03:02:05.153Z,3.38
2018-12-26T03:03:05.394Z,3.31
2018-12-26T03:04:06.012Z,3.38
2018-12-26T03:05:06.025Z,3.31
2018-12-26T03:06:05.112Z,3.31
2018-12-26T03:07:05.228Z,3.38
2018-12-26T03:08:05.937Z,3.38
2018-12-26T03:09:05.219Z,3.38
2018-12-26T03:10:05.594Z,3.38
2018-12-26T03:11:05.799Z,3.31
2018-12-26T03:12:05.788Z,3.31
2018-12-26T03:13:05.945Z,3.31
2018-12-26T03:14:05.630Z,3.31
2018-12-26T03:15:05.797Z,3.31
2018-12-26T03:16:05.125Z,3.31
2018-12-26T03:17:05.209Z,3.31
2018-12-26T03:18:05.631Z,3.31
2018-12-26T03:19:05.947Z,3.31
2018-12-26T03:20:05.997Z,3.25
2018-12-26T03:21:05.560Z,3.31
2018-12-26T03:22:05.516Z,3.31
2018-12-26T03:23:05.797Z,3.25
2018-12-26T03:24:05.308Z,3.25
2018-12-26T03:25:05.307Z,3.25
2018-12-26T03:26:05.357Z,3.25
2018-12-26T03:27:05.941Z,3.25
2018-12-26T03:28:05.545Z,3.25
2018-12-26T03:29:05.548Z,3.31
2018-12-26T03:30:05.893Z,3.31
2018-12-26T03:31:05.240Z,3.31
2018-12-26T03:32:05.240Z,3.31
2018-12-26T03:33:05.299Z,3.31
2018-12-26T03:34:05.636Z,3.31
2018-12-26T03:35:05.706Z,3.25
2018-12-26T03:36:05.748Z,3.25
2018-12-26T03:37:05.366Z,3.25
2018-12-26T03:38:05.604Z,3.25
2018-12-26T03:39:05.886Z,3.25
2018-12-26T03:40:05.127Z,3.25
2018-12-26T03:41:05.561Z,3.25
2018-12-26T03:42:05.704Z,3.25
2018-12-26T03:43:05.626Z,3.25
2018-12-26T03:44:05.360Z,3.25
2018-12-26T03:45:05.297Z,3.25
2018-12-26T03:46:06.000Z,3.19
2018-12-26T03:47:05.473Z,3.19
2018-12-26T03:48:05.626Z,3.19
2018-12-26T03:49:06.016Z,3.19
2018-12-26T03:50:05.377Z,3.19
2018-12-26T03:51:05.653Z,3.12
2018-12-26T03:52:05.517Z,3.12
2018-12-26T03:53:05.136Z,3.12
2018-12-26T03:54:05.355Z,3.12
2018-12-26T03:55:05.473Z,3.12
2018-12-26T03:56:05.941Z,3.12
2018-12-26T03:57:06.132Z,3.12
2018-12-26T03:58:05.066Z,3.12
2018-12-26T03:59:05.311Z,3.12
2018-12-26T04:00:05.770Z,3.06
2018-12-26T04:01:05.882Z,3.06
2018-12-26T04:02:05.972Z,3.06
2018-12-26T04:03:05.997Z,3.06
2018-12-26T04:04:05.135Z,3.06
2018-12-26T04:05:05.254Z,3.06
2018-12-26T04:06:05.925Z,3.06
2018-12-26T04:07:05.471Z,3.06
2018-12-26T04:08:05.594Z,3.06
2018-12-26T04:09:05.919Z,3.06
2018-12-26T04:10:05.224Z,3.06
2018-12-26T04:11:05.429Z,3.06
2018-12-26T04:12:05.294Z,3.00
2018-12-26T04:13:05.312Z,3.00
2018-12-26T04:14:05.429Z,3.00
2018-12-26T04:15:06.030Z,3.00
2018-12-26T04:16:06.089Z,3.00
2018-12-26T04:17:05.147Z,3.00
2018-12-26T04:18:05.371Z,3.00
2018-12-26T04:19:05.871Z,3.00
2018-12-26T04:20:06.010Z,3.00
2018-12-26T04:21:06.027Z,3.00
2018-12-26T04:22:05.406Z,3.00
2018-12-26T04:23:05.955Z,3.00
2018-12-26T04:24:06.020Z,3.00
2018-12-26T04:25:05.156Z,3.00
2018-12-26T04:26:05.042Z,3.00
2018-12-26T04:27:05.232Z,3.00
2018-12-26T04:28:06.911Z,3.00
2018-12-26T04:29:05.306Z,3.00
2018-12-26T04:30:05.703Z,3.00
2018-12-26T04:31:05.593Z,3.00
2018-12-26T04:32:06.014Z,3.00
2018-12-26T04:33:05.951Z,3.00
2018-12-26T04:34:06.001Z,3.00
2018-12-26T04:35:05.218Z,3.00
2018-12-26T04:36:05.291Z,3.00
2018-12-26T04:37:05.714Z,3.00
2018-12-26T04:38:05.847Z,2.94
2018-12-26T04:39:05.845Z,2.94
2018-12-26T04:40:06.085Z,2.94
2018-12-26T04:41:06.110Z,2.94
2018-12-26T04:42:05.537Z,3.00
2018-12-26T04:43:05.839Z,2.94
2018-12-26T04:44:05.123Z,3.00
2018-12-26T04:45:05.298Z,2.94
2018-12-26T04:46:05.302Z,2.94
2018-12-26T04:47:05.539Z,3.00
2018-12-26T04:48:05.588Z,2.94
2018-12-26T04:49:05.921Z,2.94
2018-12-26T04:50:05.374Z,2.94
2018-12-26T04:51:05.465Z,2.94
2018-12-26T04:52:05.855Z,2.94
2018-12-26T04:53:05.859Z,2.94
2018-12-26T04:54:05.268Z,2.94
2018-12-26T04:55:05.616Z,2.94
2018-12-26T04:56:05.438Z,2.94
2018-12-26T04:57:05.648Z,2.88
2018-12-26T04:58:05.606Z,2.88
2018-12-26T04:59:05.623Z,2.88
2018-12-26T05:00:05.116Z,2.88
2018-12-26T05:01:05.147Z,2.88
2018-12-26T05:02:05.442Z,2.94
2018-12-26T05:03:05.477Z,2.88
2018-12-26T05:04:05.462Z,2.88
2018-12-26T05:05:05.717Z,2.88
2018-12-26T05:06:05.146Z,2.88
2018-12-26T05:07:05.620Z,2.88
2018-12-26T05:08:05.915Z,2.88
2018-12-26T05:09:05.945Z,2.88
2018-12-26T05:10:05.529Z,2.88
2018-12-26T05:11:05.516Z,2.81
2018-12-26T05:12:06.027Z,2.88
2018-12-26T05:13:05.236Z,2.81
2018-12-26T05:14:05.917Z,2.81
2018-12-26T05:15:06.121Z,2.81
2018-12-26T05:16:06.035Z,2.81
2018-12-26T05:17:05.561Z,2.81
2018-12-26T05:18:05.455Z,2.81
2018-12-26T05:19:05.630Z,2.81
2018-12-26T05:20:05.991Z,2.81
2018-12-26T05:21:05.147Z,2.81
2018-12-26T05:22:05.873Z,2.81
2018-12-26T05:23:06.040Z,2.81
2018-12-26T05:24:06.023Z,2.81
2018-12-26T05:25:05.627Z,2.81
2018-12-26T05:26:05.518Z,2.81
2018-12-26T05:27:05.791Z,2.81
2018-12-26T05:28:05.235Z,2.75
2018-12-26T05:29:05.320Z,2.81
2018-12-26T05:30:05.396Z,2.81
2018-12-26T05:31:05.224Z,2.81
2018-12-26T05:32:05.771Z,2.81
2018-12-26T05:33:05.414Z,2.81
2018-12-26T05:34:05.599Z,2.81
2018-12-26T05:35:05.791Z,2.81
2018-12-26T05:36:05.133Z,2.75
2018-12-26T05:37:05.620Z,2.75
2018-12-26T05:38:05.843Z,2.75
2018-12-26T05:39:05.301Z,2.75
2018-12-26T05:40:05.917Z,2.75
2018-12-26T05:41:05.534Z,2.75
2018-12-26T05:42:05.765Z,2.75
2018-12-26T05:43:05.927Z,2.75
2018-12-26T05:44:05.044Z,2.75
2018-12-26T05:45:05.064Z,2.75
2018-12-26T05:46:05.236Z,2.75
2018-12-26T05:47:05.268Z,2.75
2018-12-26T05:48:05.349Z,2.75
2018-12-26T05:49:05.539Z,2.75
2018-12-26T05:50:05.938Z,2.75
2018-12-26T05:51:05.943Z,2.75
2018-12-26T05:52:05.470Z,2.75
2018-12-26T05:53:05.631Z,2.75
2018-12-26T05:54:05.289Z,2.75
2018-12-26T05:55:05.384Z,2.75
2018-12-26T05:56:05.463Z,2.75
2018-12-26T05:57:05.656Z,2.75
2018-12-26T05:58:05.701Z,2.75
2018-12-26T05:59:05.802Z,2.75
2018-12-26T06:00:05.765Z,2.75
2018-12-26T06:01:05.858Z,2.69
2018-12-26T06:02:05.443Z,2.69
2018-12-26T06:03:05.546Z,2.69
2018-12-26T06:04:06.031Z,2.69
2018-12-26T06:05:05.319Z,2.69
2018-12-26T06:06:06.080Z,2.69
2018-12-26T06:07:05.678Z,2.69
2018-12-26T06:08:05.863Z,2.69
2018-12-26T06:09:05.473Z,2.69
2018-12-26T06:10:05.432Z,2.69
2018-12-26T06:11:05.642Z,2.69
2018-12-26T06:12:05.639Z,2.69
2018-12-26T06:13:05.712Z,2.69
2018-12-26T06:14:05.360Z,2.69
2018-12-26T06:15:05.707Z,2.69
2018-12-26T06:16:05.312Z,2.69
2018-12-26T06:17:05.289Z,2.69
2018-12-26T06:18:05.631Z,2.69
2018-12-26T06:19:05.952Z,2.69
2018-12-26T06:20:05.286Z,2.62
2018-12-26T06:21:05.469Z,2.69
2018-12-26T06:22:06.036Z,2.69
2018-12-26T06:23:05.234Z,2.69
2018-12-26T06:24:05.787Z,2.69
2018-12-26T06:25:05.843Z,2.69
2018-12-26T06:26:05.115Z,2.62
2018-12-26T06:27:05.795Z,2.69
2018-12-26T06:28:05.209Z,2.69
2018-12-26T06:29:05.706Z,2.62
2018-12-26T06:30:05.298Z,2.62
2018-12-26T06:31:05.332Z,2.62
2018-12-26T06:32:05.435Z,2.62
2018-12-26T06:33:05.865Z,2.62
2018-12-26T06:34:05.124Z,2.62
2018-12-26T06:35:05.720Z,2.62
2018-12-26T06:36:05.771Z,2.62
2018-12-26T06:37:05.331Z,2.62
2018-12-26T06:38:05.199Z,2.62
2018-12-26T06:39:05.218Z,2.62
2018-12-26T06:40:05.457Z,2.62
2018-12-26T06:41:06.038Z,2.62
2018-12-26T06:42:05.525Z,2.62
2018-12-26T06:43:06.037Z,2.62
2018-12-26T06:44:06.014Z,2.62
2018-12-26T06:45:05.063Z,2.62
2018-12-26T06:46:05.052Z,2.62
2018-12-26T06:47:05.151Z,2.62
2018-12-26T06:48:05.126Z,2.62
2018-12-26T06:49:05.158Z,2.62
2018-12-26T06:50:05.609Z,2.62
2018-12-26T06:51:05.629Z,2.62
2018-12-26T06:52:05.186Z,2.62
2018-12-26T06:53:05.786Z,2.62
2018-12-26T06:54:05.919Z,2.62
2018-12-26T06:55:05.955Z,2.62
2018-12-26T06:56:11.006Z,2.62
2018-12-26T06:57:05.790Z,2.62
2018-12-26T06:58:05.130Z,2.62
2018-12-26T06:59:05.638Z,2.62
2018-12-26T07:00:06.092Z,2.62
2018-12-26T07:01:05.796Z,2.56
2018-12-26T07:02:05.706Z,2.62
2018-12-26T07:03:06.036Z,2.62
2018-12-26T07:04:05.349Z,2.62
2018-12-26T07:05:05.867Z,2.62
2018-12-26T07:06:05.283Z,2.56
2018-12-26T07:07:05.471Z,2.56
2018-12-26T07:08:06.027Z,2.56
2018-12-26T07:09:05.066Z,2.62
2018-12-26T07:10:05.848Z,2.62
2018-12-26T07:11:05.382Z,2.62
2018-12-26T07:12:05.451Z,2.62
2018-12-26T07:13:05.554Z,2.62
2018-12-26T07:14:05.718Z,2.56
2018-12-26T07:15:05.845Z,2.62
2018-12-26T07:16:05.043Z,2.62
2018-12-26T07:17:05.788Z,2.56
2018-12-26T07:18:05.036Z,2.56
2018-12-26T07:19:05.542Z,2.56
2018-12-26T07:20:05.219Z,2.56
2018-12-26T07:21:05.305Z,2.56
2018-12-26T07:22:05.788Z,2.56
2018-12-26T07:23:06.134Z,2.56
2018-12-26T07:24:06.089Z,2.56
2018-12-26T07:25:05.231Z,2.56
2018-12-26T07:26:05.152Z,2.56
2018-12-26T07:27:05.479Z,2.56
2018-12-26T07:28:09.071Z,2.56
2018-12-26T07:29:06.035Z,2.62
2018-12-26T07:30:05.524Z,2.56
2018-12-26T07:31:05.613Z,2.56
2018-12-26T07:32:05.841Z,2.56
2018-12-26T07:33:06.042Z,2.56
2018-12-26T07:34:05.949Z,2.56
2018-12-26T07:35:05.229Z,2.56
2018-12-26T07:36:05.631Z,2.56
2018-12-26T07:37:05.896Z,2.56
2018-12-26T07:38:05.937Z,2.56
2018-12-26T07:39:05.875Z,2.56
2018-12-26T07:40:05.232Z,2.56
2018-12-26T07:41:05.883Z,2.56
2018-12-26T07:42:05.863Z,2.56
2018-12-26T07:43:06.118Z,2.56
2018-12-26T07:44:05.128Z,2.56
2018-12-26T07:45:05.224Z,2.56
2018-12-26T07:46:05.778Z,2.56
2018-12-26T07:47:05.237Z,2.56
2018-12-26T07:48:05.684Z,2.56
2018-12-26T07:49:06.125Z,2.56
2018-12-26T07:50:05.228Z,2.56
2018-12-26T07:51:05.455Z,2.56
2018-12-26T07:52:05.508Z,2.56
2018-12-26T07:53:05.209Z,2.56
2018-12-26T07:54:05.283Z,2.56
2018-12-26T07:55:05.688Z,2.56
2018-12-26T07:56:05.943Z,2.56
2018-12-26T07:57:05.997Z,2.56
2018-12-26T07:58:05.287Z,2.56
2018-12-26T07:59:05.786Z,2.56
2018-12-26T08:00:05.189Z,2.62
2018-12-26T08:01:05.303Z,2.56
2018-12-26T08:02:05.951Z,2.56
2018-12-26T08:03:06.067Z,2.56
2018-12-26T08:04:05.078Z,2.56
2018-12-26T08:05:05.382Z,2.56
2018-12-26T08:06:05.772Z,2.56
2018-12-26T08:07:05.875Z,2.56
2018-12-26T08:08:05.226Z,2.56
2018-12-26T08:09:05.483Z,2.56
2018-12-26T08:10:05.438Z,2.56
2018-12-26T08:11:05.479Z,2.56
2018-12-26T08:12:05.147Z,2.56
2018-12-26T08:13:05.487Z,2.56
2018-12-26T08:14:06.260Z,2.56
2018-12-26T08:15:10.413Z,2.56
2018-12-26T08:16:05.393Z,2.56
2018-12-26T08:17:05.550Z,2.56
2018-12-26T08:18:05.134Z,2.56
2018-12-26T08:19:05.121Z,2.56
2018-12-26T08:20:05.398Z,2.62
2018-12-26T08:21:05.531Z,2.62
2018-12-26T08:22:05.595Z,2.62
2018-12-26T08:23:05.224Z,2.62
2018-12-26T08:24:05.751Z,2.62
2018-12-26T08:25:06.043Z,2.62
2018-12-26T08:26:05.144Z,2.62
2018-12-26T08:27:05.165Z,2.62
2018-12-26T08:28:05.201Z,2.69
2018-12-26T08:29:05.391Z,2.62
2018-12-26T08:30:05.838Z,2.69
2018-12-26T08:31:05.225Z,2.69
2018-12-26T08:32:05.934Z,2.69
2018-12-26T08:33:05.065Z,2.69
2018-12-26T08:34:05.462Z,2.69
2018-12-26T08:35:05.529Z,2.69
2018-12-26T08:36:05.796Z,2.69
2018-12-26T08:37:05.937Z,2.69
2018-12-26T08:38:05.062Z,2.69
2018-12-26T08:39:05.811Z,2.69
2018-12-26T08:40:05.678Z,2.69
2018-12-26T08:41:05.154Z,2.69
2018-12-26T08:42:05.643Z,2.69
2018-12-26T08:43:05.944Z,2.69
2018-12-26T08:44:06.099Z,2.75
2018-12-26T08:45:06.009Z,2.75
2018-12-26T08:46:05.214Z,2.75
2018-12-26T08:47:05.630Z,2.75
2018-12-26T08:48:05.674Z,2.75
2018-12-26T08:49:05.320Z,2.75
2018-12-26T08:50:05.796Z,2.75
2018-12-26T08:51:05.771Z,2.75
2018-12-26T08:52:06.023Z,2.75
2018-12-26T08:53:06.013Z,2.75
2018-12-26T08:54:05.300Z,2.75
2018-12-26T08:55:05.864Z,2.75
2018-12-26T08:56:05.112Z,2.81
2018-12-26T08:57:05.327Z,2.81
2018-12-26T08:58:05.200Z,2.81
2018-12-26T08:59:05.878Z,2.81
2018-12-26T09:00:05.945Z,2.81
2018-12-26T09:01:05.148Z,2.81
2018-12-26T09:02:05.188Z,2.88
2018-12-26T09:03:05.630Z,2.88
2018-12-26T09:04:05.691Z,2.88
2018-12-26T09:05:05.786Z,2.88
2018-12-26T09:06:05.375Z,2.88
2018-12-26T09:07:05.467Z,2.88
2018-12-26T09:08:05.453Z,2.88
2018-12-26T09:09:05.550Z,2.88
2018-12-26T09:10:05.698Z,2.88
2018-12-26T09:11:05.719Z,2.88
2018-12-26T09:12:05.698Z,2.88
2018-12-26T09:13:05.212Z,2.94
2018-12-26T09:14:05.790Z,2.94
2018-12-26T09:15:05.869Z,2.94
2018-12-26T09:16:05.848Z,2.94
2018-12-26T09:17:05.941Z,2.94
2018-12-26T09:18:06.021Z,2.94
2018-12-26T09:19:04.988Z,3.00
2018-12-26T09:20:05.529Z,3.00
2018-12-26T09:21:05.488Z,3.00
2018-12-26T09:22:05.448Z,3.00
2018-12-26T09:23:05.544Z,3.00
2018-12-26T09:24:05.937Z,3.06
2018-12-26T09:25:06.050Z,3.06
2018-12-26T09:26:05.050Z,3.06
2018-12-26T09:27:05.567Z,3.06
2018-12-26T09:28:05.516Z,3.06
2018-12-26T09:29:05.707Z,3.12
2018-12-26T09:30:05.059Z,3.12
2018-12-26T09:31:05.145Z,3.12
2018-12-26T09:32:05.133Z,3.12
2018-12-26T09:33:05.398Z,3.12
2018-12-26T09:34:05.528Z,3.19
2018-12-26T09:35:05.548Z,3.19
2018-12-26T09:36:05.129Z,3.19
2018-12-26T09:37:05.704Z,3.19
2018-12-26T09:38:05.995Z,3.25
2018-12-26T09:39:05.151Z,3.25
2018-12-26T09:40:05.211Z,3.25
2018-12-26T09:41:05.225Z,3.31
2018-12-26T09:42:05.758Z,3.31
2018-12-26T09:43:05.963Z,3.31
2018-12-26T09:44:05.929Z,3.31
2018-12-26T09:45:06.215Z,3.31
2018-12-26T09:46:05.288Z,3.38
2018-12-26T09:47:05.793Z,3.38
2018-12-26T09:48:05.923Z,3.44
2018-12-26T09:49:05.938Z,3.44
2018-12-26T09:50:05.041Z,3.44
2018-12-26T09:51:05.157Z,3.44
2018-12-26T09:52:05.074Z,3.50
2018-12-26T09:53:05.476Z,3.50
2018-12-26T09:54:05.472Z,3.50
2018-12-26T09:55:05.460Z,3.56
2018-12-26T09:56:06.089Z,3.56
2018-12-26T09:57:05.387Z,3.62
2018-12-26T09:58:05.886Z,3.62
2018-12-26T09:59:05.865Z,3.62
2018-12-26T10:00:05.056Z,3.62
2018-12-26T10:01:05.452Z,3.69
2018-12-26T10:02:05.590Z,3.69
2018-12-26T10:03:05.314Z,3.69
2018-12-26T10:04:05.359Z,3.69
2018-12-26T10:05:05.952Z,3.75
2018-12-26T10:06:06.333Z,3.69
2018-12-26T10:07:05.713Z,3.75
2018-12-26T10:08:05.839Z,3.75
2018-12-26T10:09:05.547Z,3.75
2018-12-26T10:10:05.753Z,3.75
2018-12-26T10:11:05.220Z,3.75
2018-12-26T10:12:05.199Z,3.81
2018-12-26T10:13:05.235Z,3.81
2018-12-26T10:14:05.284Z,3.81
2018-12-26T10:15:05.707Z,3.81
2018-12-26T10:16:05.847Z,3.81
2018-12-26T10:17:05.387Z,3.81
2018-12-26T10:18:05.858Z,3.81
2018-12-26T10:19:05.863Z,3.81
2018-12-26T10:20:05.299Z,3.81
2018-12-26T10:21:05.394Z,3.81
2018-12-26T10:22:05.047Z,3.81
2018-12-26T10:23:05.696Z,3.81
2018-12-26T10:24:06.100Z,3.88
2018-12-26T10:25:05.562Z,3.88
2018-12-26T10:26:05.602Z,3.88
2018-12-26T10:27:05.879Z,3.88
2018-12-26T10:28:05.855Z,3.94
2018-12-26T10:29:05.396Z,3.94
2018-12-26T10:30:05.035Z,3.94
2018-12-26T10:31:05.951Z,3.94
2018-12-26T10:32:05.940Z,3.94
2018-12-26T10:33:05.947Z,4.00
2018-12-26T10:34:06.005Z,4.00
2018-12-26T10:35:05.211Z,4.00
2018-12-26T10:36:05.618Z,4.00
2018-12-26T10:37:05.570Z,4.00
2018-12-26T10:38:05.553Z,4.06
2018-12-26T10:39:06.023Z,4.00
2018-12-26T10:40:05.596Z,4.06
2018-12-26T10:41:08.486Z,4.06
2018-12-26T10:42:05.120Z,4.06
2018-12-26T10:43:05.574Z,4.06
2018-12-26T10:44:05.703Z,4.06
2018-12-26T10:45:06.033Z,4.06
2018-12-26T10:46:05.291Z,4.12
2018-12-26T10:47:05.582Z,4.12
2018-12-26T10:48:05.696Z,4.12
2018-12-26T10:49:05.558Z,4.12
2018-12-26T10:50:05.199Z,4.12
2018-12-26T10:51:05.804Z,4.12
2018-12-26T10:52:05.256Z,4.12
2018-12-26T10:53:05.388Z,4.19
2018-12-26T10:54:05.892Z,4.19
2018-12-26T10:55:05.247Z,4.19
2018-12-26T10:56:05.231Z,4.19
2018-12-26T10:57:05.310Z,4.19
2018-12-26T10:58:05.449Z,4.19
2018-12-26T10:59:09.881Z,4.19
2018-12-26T11:00:05.861Z,4.19
2018-12-26T11:01:06.016Z,4.19
2018-12-26T11:02:06.005Z,4.19
2018-12-26T11:03:05.455Z,4.19
2018-12-26T11:04:05.828Z,4.19
2018-12-26T11:05:05.384Z,4.19
2018-12-26T11:06:05.765Z,4.19
2018-12-26T11:07:05.864Z,4.19
2018-12-26T11:08:05.460Z,4.19
2018-12-26T11:09:05.474Z,4.19
2018-12-26T11:10:05.874Z,4.19
2018-12-26T11:11:05.722Z,4.19
2018-12-26T11:12:05.628Z,4.19
2018-12-26T11:13:05.897Z,4.25
2018-12-26T11:14:05.538Z,4.25
2018-12-26T11:15:05.642Z,4.25
2018-12-26T11:16:05.534Z,4.25
2018-12-26T11:17:05.156Z,4.25
2018-12-26T11:18:05.194Z,4.25
2018-12-26T11:19:05.404Z,4.25
2018-12-26T11:20:05.470Z,4.25
2018-12-26T11:21:05.148Z,4.25
2018-12-26T11:22:05.320Z,4.25
2018-12-26T11:23:05.403Z,4.25
2018-12-26T11:24:05.765Z,4.31
2018-12-26T11:25:05.859Z,4.31
2018-12-26T11:26:05.465Z,4.31
2018-12-26T11:27:05.709Z,4.31
2018-12-26T11:28:05.125Z,4.31
2018-12-26T11:29:05.433Z,4.31
2018-12-26T11:30:05.130Z,4.31
2018-12-26T11:31:05.143Z,4.31
2018-12-26T11:32:05.294Z,4.31
2018-12-26T11:33:05.694Z,4.31
2018-12-26T11:34:06.014Z,4.38
2018-12-26T11:35:05.929Z,4.38
2018-12-26T11:36:05.192Z,4.38
2018-12-26T11:37:05.812Z,4.38
2018-12-26T11:38:06.033Z,4.38
2018-12-26T11:39:05.353Z,4.38
2018-12-26T11:40:05.275Z,4.38
2018-12-26T11:41:05.854Z,4.38
2018-12-26T11:42:05.848Z,4.44
2018-12-26T11:43:05.897Z,4.44
2018-12-26T11:44:06.223Z,4.44
2018-12-26T11:45:06.141Z,4.44
2018-12-26T11:46:05.149Z,4.44
2018-12-26T11:47:05.918Z,4.44
2018-12-26T11:48:05.885Z,4.44
2018-12-26T11:49:05.166Z,4.44
2018-12-26T11:50:05.870Z,4.50
2018-12-26T11:51:05.339Z,4.50
2018-12-26T11:52:07.102Z,4.50
2018-12-26T11:53:05.193Z,4.50
2018-12-26T11:54:05.470Z,4.50
2018-12-26T11:55:05.423Z,4.50
2018-12-26T11:56:05.552Z,4.50
2018-12-26T11:57:06.039Z,4.50
2018-12-26T11:58:05.552Z,4.56
2018-12-26T11:59:06.128Z,4.56
2018-12-26T12:00:05.446Z,4.56
2018-12-26T12:01:05.586Z,4.56
2018-12-26T12:02:05.943Z,4.56
2018-12-26T12:03:05.155Z,4.56
2018-12-26T12:04:05.325Z,4.56
2018-12-26T12:05:06.039Z,4.62
2018-12-26T12:06:05.125Z,4.62
2018-12-26T12:07:05.215Z,4.62
2018-12-26T12:08:05.746Z,4.62
2018-12-26T12:09:05.781Z,4.62
2018-12-26T12:10:06.063Z,4.69
2018-12-26T12:11:05.297Z,4.69
2018-12-26T12:12:05.281Z,4.69
2018-12-26T12:13:05.552Z,4.69
2018-12-26T12:14:06.017Z,4.69
2018-12-26T12:15:05.667Z,4.69
2018-12-26T12:17:05.491Z,4.69
2018-12-26T12:18:05.777Z,4.69
2018-12-26T12:19:05.733Z,4.75
2018-12-26T12:20:05.806Z,4.75
2018-12-26T12:21:05.194Z,4.75
2018-12-26T12:22:05.178Z,4.75
2018-12-26T12:23:05.582Z,4.75
2018-12-26T12:24:05.537Z,4.75
2018-12-26T12:25:05.415Z,4.75
2018-12-26T12:26:05.967Z,4.75
2018-12-26T12:27:06.066Z,4.75
2018-12-26T12:28:05.144Z,4.75
2018-12-26T12:29:05.160Z,4.75
2018-12-26T12:30:05.630Z,4.75
2018-12-26T12:31:05.909Z,4.81
2018-12-26T12:32:05.889Z,4.81
2018-12-26T12:33:05.872Z,4.81
2018-12-26T12:34:05.094Z,4.81
2018-12-26T12:35:05.497Z,4.81
2018-12-26T12:36:05.398Z,4.81
2018-12-26T12:37:05.497Z,4.81
2018-12-26T12:38:05.451Z,4.81
2018-12-26T12:39:06.086Z,4.81
2018-12-26T12:40:05.133Z,4.81
2018-12-26T12:41:05.714Z,4.81
2018-12-26T12:42:05.863Z,4.81
2018-12-26T12:43:05.874Z,4.81
2018-12-26T12:44:05.853Z,4.81
2018-12-26T12:45:05.838Z,4.81
2018-12-26T12:46:05.208Z,4.81
2018-12-26T12:47:05.298Z,4.81
2018-12-26T12:48:05.390Z,4.81
2018-12-26T12:49:06.005Z,4.81
2018-12-26T12:50:05.620Z,4.81
2018-12-26T12:51:05.071Z,4.81
2018-12-26T12:52:05.467Z,4.81
2018-12-26T12:53:06.008Z,4.81
2018-12-26T12:54:05.239Z,4.81
2018-12-26T12:55:05.198Z,4.81
2018-12-26T12:56:11.658Z,4.88
2018-12-26T12:57:05.610Z,4.81
2018-12-26T12:58:05.060Z,4.81
2018-12-26T12:59:05.064Z,4.81
2018-12-26T13:00:05.292Z,4.81
2018-12-26T13:01:06.012Z,4.81
2018-12-26T13:02:05.775Z,4.81
2018-12-26T13:03:06.102Z,4.81
2018-12-26T13:04:05.932Z,4.81
2018-12-26T13:05:05.989Z,4.88
2018-12-26T13:06:05.645Z,4.88
2018-12-26T13:07:06.097Z,4.88
2018-12-26T13:08:05.564Z,4.88
2018-12-26T13:09:05.529Z,4.88
2018-12-26T13:10:05.580Z,4.88
2018-12-26T13:11:05.759Z,4.88
2018-12-26T13:12:05.793Z,4.88
2018-12-26T13:13:05.906Z,4.88
2018-12-26T13:14:06.107Z,4.88
2018-12-26T13:15:05.123Z,4.88
2018-12-26T13:16:05.097Z,4.88
2018-12-26T13:17:06.485Z,4.88
2018-12-26T13:18:05.673Z,4.88
2018-12-26T13:19:05.838Z,4.88